createdAt,value
2019-05-05T00:01:05.542Z,86.14
2019-05-05T00:06:14.683Z,86.43
2019-05-05T00:11:35.188Z,86.23
2019-05-05T00:17:07.330Z,85.83
2019-05-05T00:22:15.235Z,87.18
2019-05-05T00:27:25.272Z,86.36
2019-05-05T00:32:32.423Z,87.01
2019-05-05T00:37:39.834Z,86.29
2019-05-05T00:42:47.466Z,86.43
2019-05-05T00:48:18.687Z,86.51
2019-05-05T00:53:26.519Z,87.04
2019-05-05T00:58:35.750Z,86.68
2019-05-05T01:03:44.205Z,86.50
2019-05-05T01:08:52.437Z,86.88
2019-05-05T01:14:00.319Z,87.11
2019-05-05T01:19:08.151Z,87.10
2019-05-05T01:24:17.084Z,87.69
2019-05-05T01:29:25.230Z,88.01
2019-05-05T01:34:37.989Z,87.24
2019-05-05T01:40:06.722Z,87.05
2019-05-05T01:45:14.992Z,87.14
2019-05-05T01:50:24.690Z,87.36
2019-05-05T01:55:32.139Z,87.38
2019-05-05T02:00:39.863Z,87.50
2019-05-05T02:05:47.576Z,88.11
2019-05-05T02:10:55.382Z,87.78
2019-05-05T02:16:04.625Z,87.92
2019-05-05T02:21:14.281Z,87.83
2019-05-05T02:26:24.456Z,87.97
2019-05-05T02:31:59.630Z,87.04
2019-05-05T02:37:07.690Z,87.81
2019-05-05T02:42:16.339Z,87.84
2019-05-05T02:47:37.615Z,87.65
2019-05-05T02:52:46.056Z,87.82
2019-05-05T02:57:54.472Z,87.89
2019-05-05T03:03:04.466Z,87.12
2019-05-05T03:08:13.875Z,87.99
2019-05-05T03:13:24.315Z,87.89
2019-05-05T03:18:33.835Z,87.86
2019-05-05T03:23:43.524Z,88.02
2019-05-05T03:28:56.215Z,88.60
2019-05-05T03:34:05.846Z,88.17
2019-05-05T03:39:20.632Z,87.81
2019-05-05T03:44:35.542Z,88.27
2019-05-05T03:49:44.208Z,88.38
2019-05-05T03:54:54.080Z,87.94
2019-05-05T04:00:04.187Z,87.79
2019-05-05T04:05:20.714Z,87.63
2019-05-05T04:10:28.429Z,88.12
2019-05-05T04:15:37.904Z,87.28
2019-05-05T04:20:45.682Z,87.32
2019-05-05T04:25:54.441Z,86.80
2019-05-05T04:31:04.104Z,86.66
2019-05-05T04:36:11.519Z,86.29
2019-05-05T04:41:19.130Z,86.12
2019-05-05T04:46:26.893Z,86.59
2019-05-05T04:51:47.669Z,86.99
2019-05-05T04:56:49.886Z,86.34
2019-05-05T05:02:00.940Z,87.08
2019-05-05T05:07:08.578Z,85.96
2019-05-05T05:12:16.252Z,85.76
2019-05-05T05:17:29.875Z,84.57
2019-05-05T05:22:37.716Z,83.63
2019-05-05T05:27:45.359Z,83.60
2019-05-05T05:32:53.891Z,82.03
2019-05-05T05:38:01.777Z,81.31
2019-05-05T05:43:13.894Z,80.98
2019-05-05T05:48:34.080Z,81.43
2019-05-05T05:53:41.387Z,81.26
2019-05-05T05:58:49.065Z,81.28
2019-05-05T06:03:56.456Z,80.24
2019-05-05T06:09:04.274Z,80.47
2019-05-05T06:14:11.719Z,78.65
2019-05-05T06:19:19.058Z,75.04
2019-05-05T06:24:27.930Z,73.64
2019-05-05T06:29:35.455Z,73.58
2019-05-05T06:34:44.246Z,71.94
2019-05-05T06:39:54.422Z,72.30
2019-05-05T06:45:09.106Z,70.27
2019-05-05T06:50:16.754Z,71.42
2019-05-05T06:55:24.566Z,73.94
2019-05-05T07:00:34.146Z,72.09
2019-05-05T07:05:43.534Z,70.40
2019-05-05T07:10:50.628Z,69.74
2019-05-05T07:15:58.183Z,67.23
2019-05-05T07:21:05.922Z,65.23
2019-05-05T07:26:14.425Z,66.37
2019-05-05T07:31:23.931Z,66.82
2019-05-05T07:36:59.632Z,68.17
2019-05-05T07:42:07.345Z,68.44
2019-05-05T07:47:15.124Z,69.61
2019-05-05T07:52:23.730Z,66.88
2019-05-05T07:57:31.431Z,65.60
2019-05-05T08:02:39.086Z,63.55
2019-05-05T08:07:46.493Z,63.90
2019-05-05T08:12:54.299Z,61.63
2019-05-05T08:18:19.070Z,64.46
2019-05-05T08:24:06.380Z,64.63
2019-05-05T08:29:35.697Z,61.27
2019-05-05T08:34:56.615Z,63.28
2019-05-05T08:39:54.027Z,58.99
2019-05-05T08:45:01.826Z,54.38
2019-05-05T08:50:13.572Z,50.38
2019-05-05T08:55:20.898Z,52.53
2019-05-05T09:00:29.174Z,55.39
2019-05-05T09:05:37.785Z,51.99
2019-05-05T09:10:45.292Z,52.25
2019-05-05T09:15:54.414Z,51.92
2019-05-05T09:21:01.530Z,51.88
2019-05-05T09:26:23.968Z,48.19
2019-05-05T09:31:34.396Z,44.12
2019-05-05T09:36:43.954Z,40.30
2019-05-05T09:41:53.584Z,41.48
2019-05-05T09:47:01.570Z,37.66
2019-05-05T09:52:09.329Z,35.84
2019-05-05T09:57:17.099Z,42.65
2019-05-05T10:02:24.980Z,42.51
2019-05-05T10:07:34.448Z,35.78
2019-05-05T10:12:44.400Z,26.56
2019-05-05T10:17:54.071Z,19.33
2019-05-05T10:23:01.671Z,18.72
2019-05-05T10:28:09.351Z,24.36
2019-05-05T10:33:16.605Z,26.50
2019-05-05T10:38:24.022Z,32.15
2019-05-05T10:43:31.773Z,36.36
2019-05-05T10:48:39.529Z,22.18
2019-05-05T10:53:47.159Z,20.15
2019-05-05T10:58:55.753Z,30.66
2019-05-05T11:04:03.346Z,33.52
2019-05-05T11:09:13.934Z,37.32
2019-05-05T11:14:22.379Z,35.28
2019-05-05T11:19:30.458Z,24.90
2019-05-05T11:24:38.703Z,19.26
2019-05-05T11:30:04.074Z,19.04
2019-05-05T11:35:13.927Z,17.81
2019-05-05T11:40:32.291Z,29.57
2019-05-05T11:45:39.933Z,36.19
2019-05-05T11:50:47.964Z,35.10
2019-05-05T11:55:55.936Z,28.26
2019-05-05T12:01:04.403Z,31.92
2019-05-05T12:06:14.670Z,33.52
2019-05-05T12:11:24.035Z,35.58
2019-05-05T12:16:34.700Z,35.08
2019-05-05T12:21:44.170Z,36.00
2019-05-05T12:27:03.675Z,35.97
2019-05-05T12:32:12.938Z,39.45
2019-05-05T12:37:20.548Z,35.96
2019-05-05T12:42:28.243Z,31.35
2019-05-05T12:47:53.722Z,31.56
2019-05-05T12:53:01.338Z,30.59
2019-05-05T12:58:09.021Z,32.69
2019-05-05T13:03:16.885Z,35.00
2019-05-05T13:08:24.798Z,39.29
2019-05-05T13:13:34.560Z,43.24
2019-05-05T13:18:42.571Z,40.02
2019-05-05T13:24:07.774Z,28.48
2019-05-05T13:29:15.133Z,21.39
2019-05-05T13:34:22.417Z,14.42
2019-05-05T13:39:29.750Z,14.90
2019-05-05T13:44:57.428Z,16.42
2019-05-05T13:50:10.929Z,19.54
2019-05-05T13:55:18.888Z,29.28
2019-05-05T14:00:27.870Z,27.05
2019-05-05T14:05:35.914Z,29.76
2019-05-05T14:10:43.772Z,33.34
2019-05-05T14:15:51.543Z,31.26
2019-05-05T14:20:59.362Z,31.60
2019-05-05T14:26:07.153Z,35.18
2019-05-05T14:31:17.140Z,35.85
2019-05-05T14:36:33.530Z,38.13
2019-05-05T14:41:41.292Z,40.68
2019-05-05T14:46:49.030Z,40.90
2019-05-05T14:51:56.649Z,35.32
2019-05-05T14:57:04.622Z,36.70
2019-05-05T15:02:14.421Z,38.75
2019-05-05T15:07:49.498Z,39.68
2019-05-05T15:13:01.312Z,39.84
2019-05-05T15:18:09.229Z,40.22
2019-05-05T15:23:16.918Z,40.17
2019-05-05T15:28:25.815Z,41.66
2019-05-05T15:33:33.719Z,43.00
2019-05-05T15:38:43.627Z,41.46
2019-05-05T15:43:51.113Z,42.00
2019-05-05T15:48:58.861Z,44.36
2019-05-05T15:54:06.589Z,44.77
2019-05-05T15:59:14.409Z,47.90
2019-05-05T16:04:23.719Z,48.98
2019-05-05T16:09:31.497Z,49.24
2019-05-05T16:14:45.993Z,49.81
2019-05-05T16:19:59.838Z,52.35
2019-05-05T16:25:14.076Z,53.49
2019-05-05T16:30:23.536Z,55.70
2019-05-05T16:35:31.699Z,53.97
2019-05-05T16:40:39.518Z,57.92
2019-05-05T16:45:47.180Z,58.35
2019-05-05T16:50:55.145Z,58.66
2019-05-05T16:56:04.513Z,59.47
2019-05-05T17:01:16.867Z,59.22
2019-05-05T17:06:24.602Z,58.67
2019-05-05T17:11:33.632Z,59.38
2019-05-05T17:17:03.847Z,58.83
2019-05-05T17:22:24.717Z,56.72
2019-05-05T17:27:48.605Z,54.94
2019-05-05T17:32:49.212Z,57.55
2019-05-05T17:38:04.337Z,58.50
2019-05-05T17:43:25.772Z,58.07
2019-05-05T17:48:45.839Z,59.83
2019-05-05T17:54:27.306Z,61.75
2019-05-05T17:59:34.729Z,59.45
2019-05-05T18:04:44.427Z,63.02
2019-05-05T18:09:56.560Z,63.75
2019-05-05T18:15:04.802Z,63.39
2019-05-05T18:20:12.988Z,64.64
2019-05-05T18:25:20.359Z,69.69
2019-05-05T18:30:27.610Z,70.62
2019-05-05T18:35:34.815Z,72.23
2019-05-05T18:40:44.078Z,71.55
2019-05-05T18:46:02.085Z,71.76
2019-05-05T18:51:09.395Z,71.52
2019-05-05T18:56:16.685Z,71.61
2019-05-05T19:01:44.552Z,71.30
2019-05-05T19:07:20.156Z,71.57
2019-05-05T19:12:27.912Z,72.59
2019-05-05T19:17:35.374Z,73.05
2019-05-05T19:22:43.656Z,72.92
2019-05-05T19:27:51.429Z,73.35
2019-05-05T19:32:59.103Z,73.70
2019-05-05T19:38:06.846Z,73.58
2019-05-05T19:43:14.813Z,74.17
2019-05-05T19:48:24.501Z,74.45
2019-05-05T19:53:35.239Z,74.67
2019-05-05T19:58:55.066Z,74.61
2019-05-05T20:03:51.113Z,75.19
2019-05-05T20:08:59.014Z,75.10
2019-05-05T20:14:10.211Z,75.25
2019-05-05T20:19:15.916Z,75.54
2019-05-05T20:24:24.031Z,75.86
2019-05-05T20:29:36.522Z,75.31
2019-05-05T20:35:15.012Z,75.58
2019-05-05T20:40:25.699Z,76.35
2019-05-05T20:45:35.061Z,76.55
2019-05-05T20:50:43.876Z,76.72
2019-05-05T20:55:51.612Z,76.44
2019-05-05T21:00:59.447Z,77.07
2019-05-05T21:06:07.079Z,76.42
2019-05-05T21:11:14.758Z,77.13
2019-05-05T21:16:23.707Z,77.39
2019-05-05T21:21:34.327Z,77.42
2019-05-05T21:26:55.606Z,77.38
2019-05-05T21:32:04.530Z,77.73
2019-05-05T21:37:14.208Z,77.88
2019-05-05T21:42:23.990Z,77.82
2019-05-05T21:47:31.100Z,78.66
2019-05-05T21:52:57.506Z,77.56
2019-05-05T21:58:23.287Z,78.54
2019-05-05T22:03:35.240Z,78.83
2019-05-05T22:08:42.904Z,78.83
2019-05-05T22:13:50.569Z,78.53
2019-05-05T22:18:58.285Z,79.33
2019-05-05T22:24:23.114Z,78.57
2019-05-05T22:29:31.002Z,79.63
2019-05-05T22:34:38.649Z,79.49
2019-05-05T22:39:46.239Z,79.09
2019-05-05T22:44:53.975Z,79.08
2019-05-05T22:50:04.279Z,79.34
2019-05-05T22:55:13.910Z,79.94
2019-05-05T23:00:28.648Z,79.62
2019-05-05T23:05:49.701Z,79.73
2019-05-05T23:10:57.462Z,79.46
2019-05-05T23:16:30.223Z,79.73
2019-05-05T23:21:46.840Z,80.23
2019-05-05T23:26:55.478Z,79.96
2019-05-05T23:32:03.198Z,80.20
2019-05-05T23:37:11.011Z,80.10
2019-05-05T23:42:18.760Z,80.31
2019-05-05T23:47:26.369Z,80.16
2019-05-05T23:52:35.017Z,80.33
2019-05-05T23:57:43.748Z,80.64
